Time;durP1;ratioP1;P1;durP2;ratioP2;P2;SDS_P1;SDS_P2;PMS_P1;PMS_P2;Temp;Humidity;BMP_temperature;BMP_pressure;BME280_temperature;BME280_humidity;BME280_pressure;Samples;Min_cycle;Max_cycle;Signal;HPM_P1;HPM_P2
2023/03/28 00:00:46;;;;;;;5.85;1.27;;;;;;;3.09;59.34;99401.88;4381721;32;20188;-85
2023/03/28 00:03:17;;;;;;;2.25;1.20;;;;;;;3.04;59.34;99404.44;4394435;32;20201;-85
2023/03/28 00:05:49;;;;;;;3.87;1.40;;;;;;;2.95;59.33;99414.81;4394329;32;20108;-84
2023/03/28 00:08:15;;;;;;;4.62;1.67;;;;;;;2.88;59.34;99409.72;4395075;32;20114;-85
2023/03/28 00:10:41;;;;;;;3.20;1.20;;;;;;;2.98;59.34;99419.94;4381548;32;20611;-86
2023/03/28 00:13:06;;;;;;;2.72;0.80;;;;;;;3.01;59.34;99408.75;4381886;32;20089;-85
2023/03/28 00:15:32;;;;;;;3.03;1.40;;;;;;;2.99;59.34;99421.63;4397670;32;20101;-85
2023/03/28 00:18:00;;;;;;;3.50;1.27;;;;;;;3.00;59.34;99420.78;4407325;32;21678;-85
2023/03/28 00:20:28;;;;;;;3.17;1.58;;;;;;;2.97;59.34;99423.38;4393704;32;20478;-86
2023/03/28 00:22:54;;;;;;;2.35;1.10;;;;;;;2.88;59.34;99432.88;4394158;32;20097;-85
2023/03/28 00:25:19;;;;;;;2.67;1.00;;;;;;;2.91;59.33;99422.56;4393806;32;20464;-85
2023/03/28 00:27:45;;;;;;;4.18;1.40;;;;;;;2.87;59.33;99431.16;4381385;32;20158;-85
2023/03/28 00:30:11;;;;;;;3.95;1.10;;;;;;;2.76;59.33;99439.78;4379006;32;20177;-85
2023/03/28 00:32:36;;;;;;;3.40;1.70;;;;;;;2.87;59.33;99441.44;4386551;32;20399;-85
2023/03/28 00:35:01;;;;;;;3.58;1.55;;;;;;;2.84;59.33;99442.31;4380610;32;20109;-84
2023/03/28 00:37:27;;;;;;;2.85;1.73;;;;;;;2.98;59.34;99444.78;4368579;32;20165;-85
2023/03/28 00:39:52;;;;;;;2.05;1.05;;;;;;;2.96;59.34;99434.50;4380865;32;20137;-87
2023/03/28 00:42:22;;;;;;;2.17;1.05;;;;;;;2.82;59.33;99444.00;4394179;32;20145;-86
2023/03/28 00:44:50;;;;;;;3.10;1.40;;;;;;;3.04;59.34;99455.03;4381586;32;20431;-84
2023/03/28 00:47:26;;;;;;;1.83;0.80;;;;;;;3.11;59.35;99459.28;4394056;32;20102;-84
2023/03/28 00:49:59;;;;;;;2.47;1.27;;;;;;;2.98;59.34;99465.34;4393732;32;20423;-84
2023/03/28 00:52:28;;;;;;;2.53;1.62;;;;;;;2.98;59.34;99465.34;4381407;32;20143;-85
2023/03/28 00:54:56;;;;;;;5.43;1.40;;;;;;;2.83;59.34;99476.56;4393802;32;20101;-86
2023/03/28 00:57:23;;;;;;;3.00;1.37;;;;;;;2.96;59.35;99472.22;4381943;32;20153;-85
2023/03/28 00:59:48;;;;;;;2.40;1.40;;;;;;;2.97;59.34;99479.94;4381647;32;20114;-83
2023/03/28 01:02:14;;;;;;;2.35;1.20;;;;;;;2.90;59.34;99482.56;4381463;32;20134;-84
2023/03/28 01:04:48;;;;;;;1.70;1.08;;;;;;;2.77;59.33;99485.16;4381064;32;20185;-86
2023/03/28 01:07:15;;;;;;;1.80;1.30;;;;;;;2.70;59.32;99490.34;4368932;32;20102;-85
2023/03/28 01:09:40;;;;;;;2.35;1.40;;;;;;;2.71;59.33;99486.91;4381625;32;20102;-86
2023/03/28 01:12:06;;;;;;;3.47;1.00;;;;;;;2.67;59.33;99495.50;4381377;32;20082;-85
2023/03/28 01:14:31;;;;;;;4.50;1.70;;;;;;;2.74;59.33;99500.59;4393386;32;20735;-85
2023/03/28 01:16:57;;;;;;;5.40;1.80;;;;;;;2.86;59.33;99506.56;4380539;32;20762;-84
2023/03/28 01:19:50;;;;;;;1.65;1.02;;;;;;;2.82;59.34;99499.72;4381443;32;20136;-85
2023/03/28 01:22:33;;;;;;;4.30;1.50;;;;;;;2.80;59.33;99509.16;4393715;32;20086;-86
2023/03/28 01:25:56;;;;;;;3.50;1.40;;;;;;;2.72;59.32;99506.63;4393788;32;20155;-86
2023/03/28 01:28:40;;;;;;;2.10;1.20;;;;;;;2.73;59.33;99516.88;4360067;32;20129;-85
2023/03/28 01:31:27;;;;;;;3.37;1.10;;;;;;;2.69;59.33;99510.06;4347984;32;20118;-85
2023/03/28 01:34:03;;;;;;;5.32;1.45;;;;;;;2.75;59.33;99515.16;4394308;32;20112;-84
2023/03/28 01:36:38;;;;;;;3.03;1.48;;;;;;;2.76;59.33;99521.16;4394625;32;20435;-85
2023/03/28 01:39:03;;;;;;;5.05;1.20;;;;;;;2.85;59.33;99528.00;4408124;32;20651;-84
2023/03/28 01:41:35;;;;;;;2.53;1.35;;;;;;;2.65;59.33;99526.34;4393526;32;20156;-84
2023/03/28 01:44:11;;;;;;;2.95;1.35;;;;;;;2.75;59.33;99535.72;4393652;32;20211;-84
2023/03/28 01:46:38;;;;;;;2.97;1.60;;;;;;;2.76;59.34;99542.56;4394066;32;20221;-84
2023/03/28 01:49:25;;;;;;;3.47;1.55;;;;;;;2.70;59.33;99540.03;4379018;32;20113;-84
2023/03/28 01:51:53;;;;;;;1.50;1.23;;;;;;;2.75;59.33;99546.00;4391544;32;20106;-84
2023/03/28 01:54:29;;;;;;;4.72;2.05;;;;;;;2.65;59.33;99538.34;4393393;32;20094;-84
2023/03/28 01:57:00;;;;;;;4.18;1.60;;;;;;;2.73;59.33;99547.72;4379942;32;20161;-85
2023/03/28 01:59:26;;;;;;;2.00;1.35;;;;;;;2.56;59.32;99553.78;4393792;32;20430;-85
2023/03/28 02:02:06;;;;;;;3.22;1.75;;;;;;;2.47;59.31;99547.81;4367221;32;20106;-85
2023/03/28 02:04:32;;;;;;;4.12;1.27;;;;;;;2.53;59.32;99559.78;4380025;32;20094;-85
2023/03/28 02:06:57;;;;;;;3.92;1.50;;;;;;;2.50;59.31;99556.38;4367429;32;20133;-84
2023/03/28 02:09:23;;;;;;;2.97;1.62;;;;;;;2.50;59.31;99561.50;4354995;32;20160;-84
2023/03/28 02:11:50;;;;;;;3.87;1.52;;;;;;;2.58;59.33;99570.91;4367644;32;20113;-84
2023/03/28 02:14:17;;;;;;;4.10;1.80;;;;;;;2.44;59.32;99581.22;4367158;32;20169;-85
2023/03/28 02:16:43;;;;;;;3.05;1.27;;;;;;;2.52;59.32;99568.34;4367674;32;20113;-85
2023/03/28 02:19:08;;;;;;;5.07;1.42;;;;;;;2.26;59.30;99568.41;4379297;32;23875;-84
2023/03/28 02:21:40;;;;;;;3.78;1.77;;;;;;;2.17;59.30;99583.84;4354844;32;20144;-85
2023/03/28 02:24:06;;;;;;;7.00;1.73;;;;;;;2.23;59.30;99582.97;4367647;32;20094;-84
2023/03/28 02:26:32;;;;;;;5.07;1.87;;;;;;;2.35;59.30;99577.78;4392260;32;20090;-84
2023/03/28 02:28:58;;;;;;;3.25;1.87;;;;;;;2.29;59.31;99582.94;4367587;32;20188;-85
2023/03/28 02:31:23;;;;;;;2.72;1.50;;;;;;;2.29;59.30;99594.06;4354808;32;20107;-85
2023/03/28 02:33:49;;;;;;;5.57;1.98;;;;;;;2.29;59.30;99585.53;4354647;32;20082;-84
2023/03/28 02:36:17;;;;;;;3.10;1.80;;;;;;;2.07;59.30;99584.69;4379714;32;20102;-85
2023/03/28 02:38:49;;;;;;;3.97;1.98;;;;;;;2.20;59.29;99583.81;4379407;32;20118;-84
2023/03/28 02:41:47;;;;;;;9.48;1.85;;;;;;;2.27;59.30;99593.22;4379740;32;20144;-84
2023/03/28 02:44:40;;;;;;;4.28;2.08;;;;;;;2.31;59.31;99592.34;4369419;32;20125;-84
2023/03/28 02:47:17;;;;;;;5.68;2.10;;;;;;;2.20;59.29;99601.81;4393297;32;20090;-84
2023/03/28 02:50:15;;;;;;;3.85;2.20;;;;;;;2.30;59.30;99597.50;4379362;32;20176;-84
2023/03/28 02:52:50;;;;;;;3.30;1.90;;;;;;;2.19;59.30;99607.78;4380524;32;20165;-84
2023/03/28 02:55:49;;;;;;;3.70;1.90;;;;;;;2.16;59.30;99625.78;4379250;32;20082;-84
2023/03/28 02:58:26;;;;;;;4.32;2.53;;;;;;;2.13;59.30;99629.19;4393199;32;20148;-84
2023/03/28 03:00:51;;;;;;;3.45;1.75;;;;;;;2.06;59.29;99636.88;4367802;32;20118;-83
2023/03/28 03:03:16;;;;;;;5.30;2.40;;;;;;;2.18;59.30;99641.19;4379848;32;20090;-84
2023/03/28 03:05:42;;;;;;;4.87;2.08;;;;;;;2.27;59.29;99638.59;4380887;32;20341;-85
2023/03/28 03:08:08;;;;;;;4.78;2.70;;;;;;;2.34;59.30;99645.44;4368802;32;20103;-84
2023/03/28 03:10:33;;;;;;;3.85;2.30;;;;;;;2.29;59.31;99649.72;4381037;32;20106;-85
2023/03/28 03:12:59;;;;;;;4.37;2.83;;;;;;;2.24;59.30;99654.00;4368898;32;20106;-86
2023/03/28 03:15:24;;;;;;;3.95;2.05;;;;;;;2.28;59.30;99653.16;4393481;32;20130;-85
2023/03/28 03:17:50;;;;;;;2.95;1.95;;;;;;;2.35;59.30;99662.56;4393643;32;20603;-85
2023/03/28 03:20:15;;;;;;;4.05;2.80;;;;;;;2.23;59.30;99663.44;4381053;32;20377;-86
2023/03/28 03:22:41;;;;;;;4.35;2.45;;;;;;;2.21;59.29;99665.13;4368198;32;20181;-85
2023/03/28 03:25:07;;;;;;;5.20;2.87;;;;;;;2.42;59.31;99672.00;4368402;32;20154;-86
2023/03/28 03:27:33;;;;;;;10.10;2.78;;;;;;;2.37;59.31;99666.88;4355975;32;20104;-86
2023/03/28 03:29:59;;;;;;;5.15;2.67;;;;;;;2.27;59.30;99677.97;4368688;32;20451;-85
2023/03/28 03:32:24;;;;;;;6.05;3.25;;;;;;;2.30;59.30;99679.69;4356099;32;20179;-85
2023/03/28 03:34:50;;;;;;;7.18;3.65;;;;;;;2.35;59.30;99680.53;4380500;32;22081;-84
2023/03/28 03:37:16;;;;;;;4.90;2.75;;;;;;;2.38;59.31;99681.41;4380953;32;20458;-85
2023/03/28 03:39:43;;;;;;;8.07;2.65;;;;;;;2.22;59.30;99681.41;4368848;32;20102;-85
2023/03/28 03:42:08;;;;;;;7.07;2.80;;;;;;;2.35;59.30;99683.09;4368661;32;20137;-84
2023/03/28 03:44:34;;;;;;;9.15;3.60;;;;;;;2.27;59.30;99683.13;4380891;32;20087;-85
2023/03/28 03:46:59;;;;;;;8.15;2.95;;;;;;;2.38;59.31;99684.00;4368174;32;20128;-85
2023/03/28 03:49:25;;;;;;;5.32;2.72;;;;;;;2.40;59.31;99701.97;4380699;32;20408;-84
2023/03/28 03:51:50;;;;;;;4.97;2.30;;;;;;;2.12;59.29;99699.34;4380534;32;20152;-84
2023/03/28 03:54:15;;;;;;;5.28;2.58;;;;;;;2.22;59.30;99702.81;4368235;32;20086;-84
2023/03/28 03:56:41;;;;;;;6.50;2.92;;;;;;;2.34;59.30;99699.38;4355866;32;20400;-84
2023/03/28 03:59:06;;;;;;;5.93;2.50;;;;;;;2.21;59.29;99700.25;4393117;32;20126;-85
2023/03/28 04:01:32;;;;;;;5.05;2.85;;;;;;;2.25;59.30;99705.38;4393790;32;20085;-85
2023/03/28 04:03:58;;;;;;;6.20;2.47;;;;;;;2.32;59.30;99704.50;4380745;32;20090;-85
2023/03/28 04:06:23;;;;;;;8.95;3.47;;;;;;;2.23;59.30;99712.22;4392885;32;20112;-85
2023/03/28 04:08:50;;;;;;;6.72;3.03;;;;;;;2.18;59.30;99731.06;4394443;32;20098;-86
2023/03/28 04:11:16;;;;;;;5.78;2.85;;;;;;;2.23;59.30;99729.34;4392548;32;20183;-86
2023/03/28 04:13:41;;;;;;;5.43;2.97;;;;;;;2.12;59.29;99730.16;4393033;32;20225;-86
2023/03/28 04:16:07;;;;;;;3.75;2.62;;;;;;;2.32;59.31;99731.91;4366827;32;20712;-85
2023/03/28 04:18:33;;;;;;;4.47;2.40;;;;;;;2.38;59.31;99740.50;4394336;32;20758;-85
2023/03/28 04:21:00;;;;;;;5.20;2.72;;;;;;;2.16;59.30;99738.75;4393218;32;20105;-85
2023/03/28 04:23:25;;;;;;;4.25;2.42;;;;;;;2.06;59.29;99740.44;4368031;32;20090;-85
2023/03/28 04:25:54;;;;;;;8.82;3.03;;;;;;;2.22;59.31;99751.59;4380464;32;20200;-85
2023/03/28 04:28:24;;;;;;;4.90;2.40;;;;;;;2.09;59.29;99753.28;4392520;32;20110;-86
2023/03/28 04:30:53;;;;;;;4.20;2.58;;;;;;;2.06;59.29;99753.28;4380247;32;20135;-85
2023/03/28 04:33:23;;;;;;;6.87;2.90;;;;;;;2.08;59.29;99760.97;4393072;32;20153;-85
2023/03/28 04:35:55;;;;;;;6.45;3.17;;;;;;;1.88;59.28;99757.50;4380874;32;20082;-85
2023/03/28 04:38:24;;;;;;;5.45;2.78;;;;;;;1.94;59.29;99757.53;4393016;32;20103;-85
2023/03/28 04:40:52;;;;;;;5.37;3.40;;;;;;;2.08;59.29;99764.41;4380591;32;20114;-85
2023/03/28 04:43:18;;;;;;;5.35;3.05;;;;;;;2.10;59.30;99770.38;4380250;32;20098;-86
2023/03/28 04:45:43;;;;;;;5.95;3.60;;;;;;;2.21;59.29;99765.28;4380254;32;20152;-86
2023/03/28 04:48:09;;;;;;;5.40;3.00;;;;;;;2.25;59.30;99766.16;4392445;32;22087;-86
2023/03/28 04:50:34;;;;;;;6.10;3.65;;;;;;;2.21;59.29;99773.00;4392574;32;20490;-86
2023/03/28 04:53:00;;;;;;;6.78;3.37;;;;;;;2.31;59.31;99776.44;4379919;32;20409;-85
2023/03/28 04:55:25;;;;;;;9.40;3.97;;;;;;;2.21;59.29;99779.84;4393443;32;21763;-86
2023/03/28 04:57:50;;;;;;;10.98;4.80;;;;;;;2.29;59.31;99780.72;4380144;32;20180;-86
2023/03/28 05:00:17;;;;;;;6.35;3.85;;;;;;;2.30;59.31;99785.00;4380262;32;20137;-84
2023/03/28 05:02:42;;;;;;;5.82;3.55;;;;;;;2.52;59.32;99780.75;4394001;32;20142;-83
2023/03/28 05:05:08;;;;;;;5.57;3.62;;;;;;;2.58;59.33;99778.16;4380051;32;20123;-85
2023/03/28 05:07:33;;;;;;;5.82;3.28;;;;;;;2.52;59.32;99778.16;4367687;32;20129;-85
2023/03/28 05:09:59;;;;;;;5.43;3.53;;;;;;;2.47;59.31;99785.88;4367662;32;20102;-85
2023/03/28 05:12:25;;;;;;;5.35;3.22;;;;;;;2.47;59.31;99786.75;4380032;32;20129;-85
2023/03/28 05:14:50;;;;;;;5.50;3.03;;;;;;;2.58;59.33;99797.00;4367266;32;21822;-85
2023/03/28 05:17:15;;;;;;;4.85;2.83;;;;;;;2.67;59.33;99794.47;4379889;32;20176;-87
2023/03/28 05:19:41;;;;;;;4.00;2.83;;;;;;;2.53;59.31;99791.00;4367475;32;20180;-86
2023/03/28 05:22:06;;;;;;;6.60;3.10;;;;;;;2.75;59.33;99791.88;4355093;32;20138;-84
2023/03/28 05:24:32;;;;;;;5.90;3.03;;;;;;;2.67;59.33;99794.47;4379576;32;20233;-85
2023/03/28 05:26:57;;;;;;;4.97;2.30;;;;;;;2.82;59.33;99796.16;4379749;32;20128;-85
2023/03/28 05:29:22;;;;;;;4.43;2.22;;;;;;;2.74;59.33;99803.87;4393773;32;20153;-82
2023/03/28 05:31:48;;;;;;;5.78;3.50;;;;;;;2.71;59.33;99808.16;4379868;32;20124;-84
2023/03/28 05:34:13;;;;;;;7.82;3.15;;;;;;;2.76;59.33;99806.44;4379653;32;22522;-84
2023/03/28 05:36:39;;;;;;;6.50;2.60;;;;;;;2.64;59.32;99803.87;4367510;32;20110;-85
2023/03/28 05:39:04;;;;;;;5.80;3.05;;;;;;;2.71;59.32;99809.03;4393752;32;20102;-86
2023/03/28 05:41:29;;;;;;;5.22;2.75;;;;;;;2.94;59.34;99808.19;4367284;32;20128;-85
2023/03/28 05:43:55;;;;;;;5.20;2.70;;;;;;;2.97;59.35;99818.47;4379454;32;20157;-85
2023/03/28 05:46:20;;;;;;;7.95;3.42;;;;;;;3.15;59.35;99815.03;4379222;32;23253;-85
2023/03/28 05:48:46;;;;;;;7.35;2.72;;;;;;;3.13;59.35;99819.31;4379903;32;20110;-85
2023/03/28 05:51:11;;;;;;;7.50;2.50;;;;;;;3.31;59.37;99802.16;4379714;32;20204;-85
2023/03/28 05:53:37;;;;;;;6.37;2.97;;;;;;;3.25;59.36;99814.12;4366973;32;20083;-85
2023/03/28 05:56:03;;;;;;;3.72;2.60;;;;;;;3.35;59.36;99814.12;4367096;32;20130;-85
2023/03/28 05:58:28;;;;;;;5.93;2.72;;;;;;;3.32;59.37;99821.88;4367427;32;20106;-84
2023/03/28 06:00:55;;;;;;;4.87;2.78;;;;;;;3.37;59.36;99820.13;4393339;32;20242;-85
2023/03/28 06:03:21;;;;;;;4.37;2.45;;;;;;;3.22;59.36;99819.28;4354999;32;20169;-85
2023/03/28 06:05:46;;;;;;;5.10;2.45;;;;;;;3.57;59.38;99825.25;4354639;32;20253;-85
2023/03/28 06:08:12;;;;;;;5.05;2.40;;;;;;;3.45;59.37;99821.81;4379569;32;20395;-83
2023/03/28 06:10:37;;;;;;;5.87;2.67;;;;;;;3.44;59.37;99826.13;4367154;32;20114;-84
2023/03/28 06:13:03;;;;;;;3.62;2.28;;;;;;;3.55;59.38;99831.22;4379263;32;20107;-85
2023/03/28 06:15:28;;;;;;;4.53;2.60;;;;;;;3.51;59.37;99835.53;4379368;32;20149;-86
2023/03/28 06:17:54;;;;;;;5.07;2.75;;;;;;;3.80;59.39;99834.63;4367117;32;20145;-86
2023/03/28 06:20:19;;;;;;;7.62;2.78;;;;;;;3.96;59.39;99847.41;4366975;32;20095;-84
2023/03/28 06:22:45;;;;;;;5.75;2.70;;;;;;;3.91;59.40;99856.03;4366258;32;20495;-85
2023/03/28 06:25:10;;;;;;;4.65;2.90;;;;;;;4.09;59.41;99855.09;4392573;32;20130;-84
2023/03/28 06:27:35;;;;;;;3.53;2.58;;;;;;;4.20;59.40;99858.47;4365540;32;20126;-85
2023/03/28 06:30:03;;;;;;;4.18;2.70;;;;;;;4.32;59.42;99864.44;4365947;32;20454;-87
2023/03/28 06:32:28;;;;;;;3.47;2.30;;;;;;;4.21;59.42;99866.19;4366656;32;20130;-87
2023/03/28 06:34:54;;;;;;;5.18;2.35;;;;;;;4.06;59.40;99874.00;4391029;32;20423;-86
2023/03/28 06:37:19;;;;;;;6.68;2.58;;;;;;;4.18;59.41;99870.50;4353107;32;20150;-86
2023/03/28 06:39:45;;;;;;;3.55;2.40;;;;;;;4.07;59.41;99880.00;4392072;32;20174;-89
2023/03/28 06:42:10;;;;;;;5.47;2.87;;;;;;;4.29;59.42;99894.53;4366042;32;20126;-87
2023/03/28 06:44:36;;;;;;;2.97;2.17;;;;;;;4.45;59.42;99891.00;4378625;32;20510;-86
2023/03/28 06:47:01;;;;;;;4.62;2.03;;;;;;;4.35;59.41;99891.06;4365897;32;20189;-86
2023/03/28 06:49:27;;;;;;;4.70;2.33;;;;;;;4.38;59.42;99898.78;4378424;32;20640;-85
2023/03/28 06:51:52;;;;;;;4.07;2.33;;;;;;;4.50;59.43;99917.63;4378281;32;20095;-87
2023/03/28 06:54:18;;;;;;;2.92;2.08;;;;;;;4.65;59.44;99908.09;4391747;32;20117;-86
2023/03/28 06:56:43;;;;;;;5.22;2.40;;;;;;;4.87;59.45;99901.94;4365757;32;20118;-86
2023/03/28 06:59:08;;;;;;;5.18;2.47;;;;;;;4.88;59.45;99899.34;4378360;32;20102;-87
2023/03/28 07:01:34;;;;;;;4.97;2.45;;;;;;;4.98;59.45;99899.31;4365555;32;20102;-86
2023/03/28 07:04:00;;;;;;;4.40;2.33;;;;;;;5.13;59.46;99896.59;4377940;32;20148;-87
2023/03/28 07:06:26;;;;;;;2.90;2.12;;;;;;;5.23;59.46;99909.44;4378486;32;20122;-86
2023/03/28 07:08:52;;;;;;;3.30;2.20;;;;;;;5.10;59.47;99910.37;4366175;32;20140;-87
2023/03/28 07:11:17;;;;;;;5.10;2.25;;;;;;;5.35;59.48;99895.56;4353851;32;20172;-85
2023/03/28 07:13:43;;;;;;;2.97;1.98;;;;;;;5.64;59.50;99905.59;4378566;32;20194;-86
2023/03/28 07:16:12;;;;;;;2.95;2.17;;;;;;;5.64;59.50;99908.19;4378551;32;20212;-87
2023/03/28 07:18:38;;;;;;;3.42;1.87;;;;;;;5.72;59.50;99906.41;4366160;32;20121;-87
2023/03/28 07:21:05;;;;;;;2.97;1.85;;;;;;;5.64;59.50;99913.34;4379080;32;20122;-86
2023/03/28 07:23:31;;;;;;;4.75;1.50;;;;;;;5.78;59.50;99916.66;4354126;32;20400;-86
2023/03/28 07:25:56;;;;;;;5.28;1.83;;;;;;;5.54;59.49;99915.19;4378826;32;20190;-86
2023/03/28 07:28:23;;;;;;;2.65;1.52;;;;;;;5.41;59.48;99925.59;4353974;32;20178;-87
2023/03/28 07:30:48;;;;;;;2.40;1.52;;;;;;;5.44;59.48;99925.56;4354354;32;20090;-86
2023/03/28 07:33:13;;;;;;;3.37;1.60;;;;;;;5.66;59.49;99921.09;4366154;32;20410;-86
2023/03/28 07:35:39;;;;;;;1.90;1.20;;;;;;;5.65;59.49;99927.97;4378911;32;20160;-87
2023/03/28 07:38:04;;;;;;;4.12;1.65;;;;;;;5.96;59.51;99927.72;4378549;32;20129;-86
2023/03/28 07:40:30;;;;;;;2.65;1.10;;;;;;;5.75;59.49;99927.03;4353755;32;21940;-86
2023/03/28 07:42:55;;;;;;;1.70;1.12;;;;;;;5.68;59.49;99924.50;4353385;32;22180;-86
2023/03/28 07:45:21;;;;;;;4.30;1.40;;;;;;;5.77;59.50;99939.94;4366138;32;20482;-86
2023/03/28 07:47:46;;;;;;;2.67;1.98;;;;;;;5.85;59.50;99927.78;4378552;32;20170;-86
2023/03/28 07:50:12;;;;;;;2.92;1.23;;;;;;;5.59;59.49;99929.75;4354502;32;20174;-87
2023/03/28 07:52:43;;;;;;;2.22;1.25;;;;;;;5.54;59.49;99940.13;4368233;32;20162;-87
2023/03/28 07:55:08;;;;;;;4.07;2.60;;;;;;;5.59;59.49;99934.94;4393163;32;20110;-86
2023/03/28 07:57:34;;;;;;;1.65;1.12;;;;;;;5.87;59.51;99939.81;4380673;32;20110;-86
2023/03/28 07:59:59;;;;;;;1.95;1.20;;;;;;;5.84;59.51;99928.66;4394502;32;20352;-86
2023/03/28 08:02:25;;;;;;;3.12;1.60;;;;;;;6.04;59.51;99919.00;4380250;32;20162;-86
2023/03/28 08:04:52;;;;;;;3.55;0.98;;;;;;;6.05;59.51;99912.13;4368120;32;20166;-86
2023/03/28 08:07:19;;;;;;;4.10;1.02;;;;;;;6.17;59.53;99903.38;4356113;32;20470;-86
2023/03/28 08:09:44;;;;;;;2.40;0.85;;;;;;;6.22;59.53;99911.94;4368462;32;20106;-87
2023/03/28 08:12:10;;;;;;;1.87;0.88;;;;;;;5.76;59.50;99923.59;4368239;32;20150;-87
2023/03/28 08:14:35;;;;;;;1.23;0.70;;;;;;;5.78;59.51;99923.56;4380262;32;20130;-87
2023/03/28 08:17:00;;;;;;;1.95;1.00;;;;;;;5.84;59.51;99908.00;4367837;32;20534;-87
2023/03/28 08:19:26;;;;;;;2.30;1.33;;;;;;;6.06;59.52;99922.44;4380527;32;20162;-87
2023/03/28 08:21:51;;;;;;;2.15;0.82;;;;;;;6.37;59.53;99911.72;4367524;32;24463;-86
2023/03/28 08:24:17;;;;;;;4.22;1.08;;;;;;;6.26;59.52;99903.25;4380320;32;20502;-87
2023/03/28 08:26:42;;;;;;;1.62;0.95;;;;;;;6.19;59.52;99923.16;4367662;32;23198;-87
2023/03/28 08:29:07;;;;;;;1.50;0.98;;;;;;;6.12;59.51;99906.84;4380639;32;20134;-87
2023/03/28 08:31:33;;;;;;;5.97;1.10;;;;;;;6.02;59.51;99914.75;4380552;32;20520;-87
2023/03/28 08:33:58;;;;;;;4.07;1.20;;;;;;;6.22;59.53;99911.94;4367985;32;20446;-86
2023/03/28 08:36:25;;;;;;;2.58;0.80;;;;;;;6.34;59.53;99891.09;4367498;32;24771;-86
2023/03/28 08:38:53;;;;;;;5.00;1.40;;;;;;;6.60;59.55;99908.84;4368252;32;20455;-86
2023/03/28 08:41:34;;;;;;;3.50;1.10;;;;;;;6.51;59.54;99909.84;4368224;32;20113;-87
2023/03/28 08:44:36;;;;;;;1.20;0.70;;;;;;;6.50;59.54;99905.53;4380355;32;20136;-87
2023/03/28 08:47:03;;;;;;;2.65;0.70;;;;;;;6.81;59.57;99907.69;4380196;32;20101;-87
2023/03/28 08:49:28;;;;;;;2.65;0.68;;;;;;;7.01;59.57;99891.00;4380374;32;20102;-86
2023/03/28 08:51:56;;;;;;;3.47;0.77;;;;;;;7.26;59.58;99880.25;4380252;32;20154;-87
2023/03/28 08:54:41;;;;;;;1.58;0.75;;;;;;;7.49;59.60;99887.66;4355507;32;20122;-87
2023/03/28 08:57:06;;;;;;;3.53;0.90;;;;;;;7.64;59.61;99864.06;4369331;32;20473;-87
2023/03/28 09:00:13;;;;;;;2.47;1.25;;;;;;;7.59;59.60;99881.44;4355152;32;21374;-87
2023/03/28 09:02:39;;;;;;;2.62;0.77;;;;;;;7.37;59.59;99884.41;4380762;32;20467;-87
2023/03/28 09:05:05;;;;;;;1.08;0.70;;;;;;;7.30;59.59;99902.63;4355344;32;20127;-87
2023/03/28 09:07:49;;;;;;;2.75;0.60;;;;;;;7.01;59.56;99895.34;4367577;32;20090;-87
2023/03/28 09:10:43;;;;;;;5.78;1.15;;;;;;;6.56;59.54;99904.59;4380210;32;20098;-87
2023/03/28 09:13:27;;;;;;;1.75;0.60;;;;;;;6.66;59.55;99896.72;4376942;32;20126;-86
2023/03/28 09:16:18;;;;;;;1.50;0.50;;;;;;;6.74;59.55;99907.78;4394228;32;20105;-87
2023/03/28 09:19:37;;;;;;;2.47;1.15;;;;;;;6.69;59.55;99899.25;4382491;32;20124;-87
2023/03/28 09:22:10;;;;;;;9.52;0.98;;;;;;;7.02;59.58;99910.84;4332078;33;20114;-86
2023/03/28 09:24:39;;;;;;;1.48;0.77;;;;;;;7.05;59.57;99900.44;4331947;33;20107;-85
2023/03/28 09:27:12;;;;;;;2.70;0.60;;;;;;;7.07;59.57;99923.69;4357785;32;20114;-87
2023/03/28 09:29:37;;;;;;;3.50;0.52;;;;;;;6.98;59.57;99916.09;4368088;32;20168;-86
2023/03/28 09:32:06;;;;;;;1.58;0.50;;;;;;;7.18;59.59;99918.38;4354729;32;26793;-86
2023/03/28 09:34:39;;;;;;;3.25;0.73;;;;;;;7.15;59.58;99916.69;4367901;32;20502;-86
2023/03/28 09:37:16;;;;;;;1.62;0.57;;;;;;;7.49;59.60;99934.28;4367705;32;20140;-86
2023/03/28 09:39:45;;;;;;;0.70;0.52;;;;;;;7.67;59.60;99924.47;4368219;32;20490;-87
2023/03/28 09:42:31;;;;;;;2.80;0.65;;;;;;;7.83;59.61;99925.06;4355451;32;20090;-87
2023/03/28 09:45:29;;;;;;;1.62;0.60;;;;;;;7.99;59.63;99921.28;4382403;32;20106;-86
2023/03/28 09:47:54;;;;;;;2.40;0.57;;;;;;;7.77;59.62;99911.31;4393705;32;20462;-87
2023/03/28 09:50:20;;;;;;;1.58;0.93;;;;;;;7.69;59.62;99912.31;4364116;32;112553;-87
2023/03/28 09:52:45;;;;;;;2.78;0.70;;;;;;;7.86;59.62;99901.66;4367677;32;20382;-86
2023/03/28 09:55:37;;;;;;;2.20;0.80;;;;;;;7.65;59.61;99904.66;4354573;32;21689;-87
2023/03/28 09:58:02;;;;;;;1.83;0.57;;;;;;;7.66;59.60;99894.25;4390131;32;20133;-87
2023/03/28 10:00:28;;;;;;;0.88;0.50;;;;;;;7.88;59.62;99901.63;4379873;32;20094;-87
2023/03/28 10:02:54;;;;;;;2.60;0.70;;;;;;;7.18;59.58;99895.06;4367478;32;20086;-87
2023/03/28 10:05:37;;;;;;;0.90;0.68;;;;;;;7.14;59.57;99906.38;4354969;32;20408;-86
2023/03/28 10:08:05;;;;;;;1.85;0.60;;;;;;;7.42;59.60;99894.69;4367780;32;20176;-87
2023/03/28 10:10:30;;;;;;;1.75;0.60;;;;;;;7.54;59.61;99897.03;4367875;32;20116;-87
2023/03/28 10:12:57;;;;;;;3.15;0.70;;;;;;;7.64;59.61;99897.75;4353551;32;22110;-87
2023/03/28 10:15:38;;;;;;;0.68;0.40;;;;;;;7.74;59.61;99901.87;4367309;32;20137;-87
2023/03/28 10:18:03;;;;;;;0.40;0.40;;;;;;;7.82;59.61;99894.84;4368245;32;20129;-86
2023/03/28 10:20:33;;;;;;;0.68;0.40;;;;;;;7.58;59.60;99919.44;4379692;32;20105;-86
2023/03/28 10:22:58;;;;;;;3.00;0.50;;;;;;;7.34;59.59;99897.41;4354966;32;20121;-86
2023/03/28 10:25:53;;;;;;;1.62;0.43;;;;;;;7.73;59.61;99902.75;4367416;32;20230;-86
2023/03/28 10:28:32;;;;;;;1.58;0.77;;;;;;;7.61;59.61;99893.47;4387359;32;20160;-86
2023/03/28 10:31:00;;;;;;;1.70;0.45;;;;;;;7.58;59.60;99906.50;4367307;32;20090;-86
2023/03/28 10:33:36;;;;;;;2.25;0.50;;;;;;;7.75;59.61;99906.19;4392237;32;20090;-86
2023/03/28 10:36:08;;;;;;;2.37;0.82;;;;;;;7.59;59.60;99905.62;4367344;32;20463;-87
2023/03/28 10:38:43;;;;;;;1.90;0.70;;;;;;;7.42;59.59;99892.09;4367879;32;20097;-86
2023/03/28 10:41:10;;;;;;;4.20;0.60;;;;;;;7.31;59.58;99904.34;4379572;32;20094;-86
2023/03/28 10:43:39;;;;;;;2.10;0.85;;;;;;;7.39;59.58;99898.19;4393191;32;20106;-86
2023/03/28 10:46:20;;;;;;;2.70;0.62;;;;;;;7.68;59.61;99905.44;4367244;32;20127;-87
2023/03/28 10:49:05;;;;;;;1.02;0.70;;;;;;;7.85;59.62;99904.28;4379429;32;20132;-87
2023/03/28 10:51:31;;;;;;;2.72;0.60;;;;;;;8.02;59.63;99890.09;4368160;32;20112;-86
2023/03/28 10:54:34;;;;;;;1.65;0.47;;;;;;;7.88;59.62;99883.50;4366950;32;20083;-87
2023/03/28 10:57:08;;;;;;;6.93;1.17;;;;;;;8.06;59.62;99884.88;4379313;32;20111;-87
2023/03/28 10:59:46;;;;;;;2.37;1.10;;;;;;;8.38;59.65;99889.44;4379404;32;20109;-87
2023/03/28 11:02:11;;;;;;;2.22;0.68;;;;;;;8.70;59.67;99893.94;4354902;32;20391;-86
2023/03/28 11:05:10;;;;;;;3.12;1.05;;;;;;;8.59;59.67;99889.00;4379135;32;20121;-86
2023/03/28 11:07:45;;;;;;;1.10;0.60;;;;;;;8.20;59.64;99890.62;4366307;32;20111;-86
2023/03/28 11:10:17;;;;;;;1.25;0.60;;;;;;;8.19;59.64;99897.56;4355311;32;20491;-86
2023/03/28 11:13:07;;;;;;;1.58;0.70;;;;;;;8.28;59.64;99896.50;4379031;32;20157;-86
2023/03/28 11:15:44;;;;;;;1.25;0.60;;;;;;;8.28;59.64;99907.78;4379122;32;20125;-86
2023/03/28 11:18:22;;;;;;;1.20;0.40;;;;;;;7.87;59.62;99900.78;4392934;32;20098;-87
2023/03/28 11:20:53;;;;;;;2.55;0.75;;;;;;;8.14;59.64;99889.03;4379473;32;20114;-86
2023/03/28 11:23:27;;;;;;;3.60;0.77;;;;;;;8.30;59.65;99885.25;4378925;32;20518;-86
2023/03/28 11:26:08;;;;;;;2.97;0.70;;;;;;;8.32;59.64;99887.81;4380994;32;20116;-87
2023/03/28 11:29:04;;;;;;;3.47;0.80;;;;;;;8.31;59.65;99897.31;4368617;32;20111;-87
2023/03/28 11:31:30;;;;;;;3.97;0.70;;;;;;;8.59;59.67;99897.62;4380825;32;20585;-87
2023/03/28 11:34:14;;;;;;;3.33;0.60;;;;;;;8.48;59.65;99885.75;4380770;32;20122;-87
2023/03/28 11:36:57;;;;;;;2.47;0.80;;;;;;;8.25;59.64;99897.44;4369047;32;20361;-87
2023/03/28 11:39:28;;;;;;;0.80;0.80;;;;;;;7.90;59.62;99911.09;4356288;32;20486;-87
2023/03/28 11:41:54;;;;;;;2.58;0.70;;;;;;;7.82;59.62;99920.75;4380739;32;20180;-86
2023/03/28 11:44:28;;;;;;;1.00;0.70;;;;;;;7.72;59.61;99911.41;4355945;32;20098;-86
2023/03/28 11:47:03;;;;;;;2.87;1.42;;;;;;;7.88;59.62;99901.63;4369045;32;20121;-87
2023/03/28 11:49:32;;;;;;;0.95;0.68;;;;;;;7.94;59.63;99909.28;4368254;32;20168;-86
2023/03/28 11:52:20;;;;;;;1.33;0.70;;;;;;;7.72;59.61;99887.25;4380888;32;20110;-87
2023/03/28 11:55:15;;;;;;;0.93;0.60;;;;;;;7.97;59.62;99896.28;4380746;32;20121;-86